Time;durP1;ratioP1;P1;durP2;ratioP2;P2;SDS_P1;SDS_P2;PMS_P1;PMS_P2;Temp;Humidity;BMP_temperature;BMP_pressure;BME280_temperature;BME280_humidity;BME280_pressure;Samples;Min_cycle;Max_cycle;Signal;HPM_P1;HPM_P2
2019/12/08 00:00:35;;;;;;;1.7;1.5;;;;;;;5.57;78.62695;95368.97;;;;
2019/12/08 00:01:36;;;;;;;1.7;1.5;;;;;;;5.57;78.62695;95368.97;;;;
2019/12/08 00:02:37;;;;;;;1.7;1.5;;;;;;;5.57;78.62695;95368.97;;;;
2019/12/08 00:03:38;;;;;;;1.7;1.5;;;;;;;5.57;78.62695;95368.97;;;;
2019/12/08 00:04:40;;;;;;;1.7;1.5;;;;;;;5.57;78.62695;95368.97;;;;
2019/12/08 00:05:41;;;;;;;1.6;1.5;;;;;;;5.66;78.875;95358.79;;;;
2019/12/08 00:06:42;;;;;;;1.6;1.5;;;;;;;5.66;78.875;95358.79;;;;
2019/12/08 00:07:43;;;;;;;1.6;1.5;;;;;;;5.66;78.875;95358.79;;;;
2019/12/08 00:08:44;;;;;;;1.6;1.5;;;;;;;5.66;78.875;95358.79;;;;
2019/12/08 00:09:45;;;;;;;1.6;1.5;;;;;;;5.66;78.875;95358.79;;;;
2019/12/08 00:10:46;;;;;;;1.6;1.5;;;;;;;5.66;78.875;95358.79;;;;
2019/12/08 00:11:47;;;;;;;1.6;1.5;;;;;;;5.66;78.875;95358.79;;;;
2019/12/08 00:12:49;;;;;;;1.6;1.5;;;;;;;5.66;78.875;95358.79;;;;
2019/12/08 00:13:50;;;;;;;1.6;1.5;;;;;;;5.66;78.875;95358.79;;;;
2019/12/08 00:14:51;;;;;;;1.6;1.5;;;;;;;5.66;78.875;95358.79;;;;
2019/12/08 00:15:52;;;;;;;2;1.35;;;;;;;5.7;78.87305;95358.25;;;;
2019/12/08 00:16:54;;;;;;;2;1.35;;;;;;;5.7;78.87305;95358.25;;;;
2019/12/08 00:18:03;;;;;;;2;1.35;;;;;;;5.7;78.87305;95358.25;;;;
2019/12/08 00:19:13;;;;;;;2;1.35;;;;;;;5.7;78.87305;95358.25;;;;
2019/12/08 00:21:44;;;;;;;2;1.35;;;;;;;5.7;78.87305;95358.25;;;;
2019/12/08 00:24:05;;;;;;;2;1.35;;;;;;;5.7;78.87305;95358.25;;;;
2019/12/08 00:25:07;;;;;;;2;1.35;;;;;;;5.7;78.87305;95358.25;;;;
2019/12/08 00:26:08;;;;;;;2;1.35;;;;;;;5.7;78.87305;95358.25;;;;
2019/12/08 00:27:09;;;;;;;1.55;1.4;;;;;;;5.56;79.04785;95355.66;;;;
2019/12/08 00:28:10;;;;;;;1.55;1.4;;;;;;;5.56;79.04785;95355.66;;;;
2019/12/08 00:29:11;;;;;;;1.55;1.4;;;;;;;5.56;79.04785;95355.66;;;;
2019/12/08 00:30:12;;;;;;;1.55;1.4;;;;;;;5.56;79.04785;95355.66;;;;
2019/12/08 00:31:14;;;;;;;1.55;1.4;;;;;;;5.56;79.04785;95355.66;;;;
2019/12/08 00:32:15;;;;;;;1.55;1.4;;;;;;;5.56;79.04785;95355.66;;;;
2019/12/08 00:33:16;;;;;;;1.55;1.4;;;;;;;5.56;79.04785;95355.66;;;;
2019/12/08 00:34:17;;;;;;;1.55;1.4;;;;;;;5.56;79.04785;95355.66;;;;
2019/12/08 00:35:18;;;;;;;1.55;1.4;;;;;;;5.56;79.04785;95355.66;;;;
2019/12/08 00:36:20;;;;;;;1.55;1.4;;;;;;;5.56;79.04785;95355.66;;;;
2019/12/08 00:37:21;;;;;;;1.7;1.5;;;;;;;5.56;79.26758;95367.83;;;;
2019/12/08 00:38:22;;;;;;;1.7;1.5;;;;;;;5.56;79.26758;95367.83;;;;
2019/12/08 00:39:23;;;;;;;1.7;1.5;;;;;;;5.56;79.26758;95367.83;;;;
2019/12/08 00:40:24;;;;;;;1.7;1.5;;;;;;;5.56;79.26758;95367.83;;;;
2019/12/08 00:41:25;;;;;;;1.7;1.5;;;;;;;5.56;79.26758;95367.83;;;;
2019/12/08 00:42:26;;;;;;;1.7;1.5;;;;;;;5.56;79.26758;95367.83;;;;
2019/12/08 00:43:27;;;;;;;1.7;1.5;;;;;;;5.56;79.26758;95367.83;;;;
2019/12/08 00:44:28;;;;;;;1.7;1.5;;;;;;;5.56;79.26758;95367.83;;;;
2019/12/08 00:45:30;;;;;;;1.7;1.5;;;;;;;5.56;79.26758;95367.83;;;;
2019/12/08 00:46:31;;;;;;;1.7;1.5;;;;;;;5.56;79.26758;95367.83;;;;
2019/12/08 00:47:32;;;;;;;2.1;1.4;;;;;;;5.61;79.66016;95351.86;;;;
2019/12/08 00:48:33;;;;;;;2.1;1.4;;;;;;;5.61;79.66016;95351.86;;;;
2019/12/08 00:49:34;;;;;;;2.1;1.4;;;;;;;5.61;79.66016;95351.86;;;;
2019/12/08 00:50:35;;;;;;;2.1;1.4;;;;;;;5.61;79.66016;95351.86;;;;
2019/12/08 00:51:36;;;;;;;2.1;1.4;;;;;;;5.61;79.66016;95351.86;;;;
2019/12/08 00:52:37;;;;;;;2.1;1.4;;;;;;;5.61;79.66016;95351.86;;;;
2019/12/08 00:53:38;;;;;;;2.1;1.4;;;;;;;5.61;79.66016;95351.86;;;;
2019/12/08 00:54:39;;;;;;;2.1;1.4;;;;;;;5.61;79.66016;95351.86;;;;
2019/12/08 00:55:40;;;;;;;2.1;1.4;;;;;;;5.61;79.66016;95351.86;;;;
2019/12/08 00:56:42;;;;;;;2.1;1.4;;;;;;;5.61;79.66016;95351.86;;;;
2019/12/08 00:57:43;;;;;;;2.1;1.4;;;;;;;5.61;79.66016;95351.86;;;;
2019/12/08 00:58:44;;;;;;;1.8;1.65;;;;;;;5.71;79.40137;95340.75;;;;
2019/12/08 00:59:45;;;;;;;1.8;1.65;;;;;;;5.71;79.40137;95340.75;;;;
2019/12/08 01:00:46;;;;;;;1.8;1.65;;;;;;;5.71;79.40137;95340.75;;;;
2019/12/08 01:01:47;;;;;;;1.8;1.65;;;;;;;5.71;79.40137;95340.75;;;;
2019/12/08 01:02:48;;;;;;;1.8;1.65;;;;;;;5.71;79.40137;95340.75;;;;
2019/12/08 01:03:50;;;;;;;1.8;1.65;;;;;;;5.71;79.40137;95340.75;;;;
2019/12/08 01:04:52;;;;;;;1.8;1.65;;;;;;;5.71;79.40137;95340.75;;;;
2019/12/08 01:05:53;;;;;;;1.8;1.65;;;;;;;5.71;79.40137;95340.75;;;;
2019/12/08 01:06:54;;;;;;;1.8;1.65;;;;;;;5.71;79.40137;95340.75;;;;
2019/12/08 01:07:55;;;;;;;1.8;1.65;;;;;;;5.71;79.40137;95340.75;;;;
2019/12/08 01:08:56;;;;;;;1.5;1.4;;;;;;;5.47;79.31543;95338.64;;;;
2019/12/08 01:09:57;;;;;;;1.5;1.4;;;;;;;5.47;79.31543;95338.64;;;;
2019/12/08 01:10:59;;;;;;;1.5;1.4;;;;;;;5.47;79.31543;95338.64;;;;
2019/12/08 01:12:00;;;;;;;1.5;1.4;;;;;;;5.47;79.31543;95338.64;;;;
2019/12/08 01:13:01;;;;;;;1.5;1.4;;;;;;;5.47;79.31543;95338.64;;;;
2019/12/08 01:14:02;;;;;;;1.5;1.4;;;;;;;5.47;79.31543;95338.64;;;;
2019/12/08 01:15:07;;;;;;;1.5;1.4;;;;;;;5.47;79.31543;95338.64;;;;
2019/12/08 01:16:15;;;;;;;1.5;1.4;;;;;;;5.47;79.31543;95338.64;;;;
2019/12/08 01:17:25;;;;;;;1.5;1.4;;;;;;;5.47;79.31543;95338.64;;;;
2019/12/08 01:18:35;;;;;;;1.5;1.4;;;;;;;5.47;79.31543;95338.64;;;;
2019/12/08 01:19:46;;;;;;;2.1;1.4;;;;;;;5.11;79.41895;95317.56;;;;
2019/12/08 01:20:58;;;;;;;2.1;1.4;;;;;;;5.11;79.41895;95317.56;;;;
2019/12/08 01:22:13;;;;;;;2.1;1.4;;;;;;;5.11;79.41895;95317.56;;;;
2019/12/08 01:23:26;;;;;;;2.1;1.4;;;;;;;5.11;79.41895;95317.56;;;;
2019/12/08 01:24:31;;;;;;;2.1;1.4;;;;;;;5.11;79.41895;95317.56;;;;
2019/12/08 01:25:33;;;;;;;2.1;1.4;;;;;;;5.11;79.41895;95317.56;;;;
2019/12/08 01:26:34;;;;;;;2.1;1.4;;;;;;;5.11;79.41895;95317.56;;;;
2019/12/08 01:27:35;;;;;;;2.1;1.4;;;;;;;5.11;79.41895;95317.56;;;;
2019/12/08 01:28:36;;;;;;;2.1;1.4;;;;;;;5.11;79.41895;95317.56;;;;
2019/12/08 01:29:37;;;;;;;2.1;1.4;;;;;;;5.11;79.41895;95317.56;;;;
2019/12/08 01:30:38;;;;;;;1.6;1.4;;;;;;;4.63;79.81348;95304.83;;;;
2019/12/08 01:31:39;;;;;;;1.6;1.4;;;;;;;4.63;79.81348;95304.83;;;;
2019/12/08 01:32:40;;;;;;;1.6;1.4;;;;;;;4.63;79.81348;95304.83;;;;
2019/12/08 01:33:42;;;;;;;1.6;1.4;;;;;;;4.63;79.81348;95304.83;;;;
2019/12/08 01:34:43;;;;;;;1.6;1.4;;;;;;;4.63;79.81348;95304.83;;;;
2019/12/08 01:35:44;;;;;;;1.6;1.4;;;;;;;4.63;79.81348;95304.83;;;;
2019/12/08 01:36:45;;;;;;;1.6;1.4;;;;;;;4.63;79.81348;95304.83;;;;
2019/12/08 01:37:46;;;;;;;1.6;1.4;;;;;;;4.63;79.81348;95304.83;;;;
2019/12/08 01:38:47;;;;;;;1.6;1.4;;;;;;;4.63;79.81348;95304.83;;;;
2019/12/08 01:39:48;;;;;;;1.6;1.4;;;;;;;4.63;79.81348;95304.83;;;;
2019/12/08 01:40:49;;;;;;;1.5;1.4;;;;;;;4.28;80.18164;95309.79;;;;
2019/12/08 01:41:50;;;;;;;1.5;1.4;;;;;;;4.28;80.18164;95309.79;;;;
2019/12/08 01:42:52;;;;;;;1.5;1.4;;;;;;;4.28;80.18164;95309.79;;;;
2019/12/08 01:43:53;;;;;;;1.5;1.4;;;;;;;4.28;80.18164;95309.79;;;;
2019/12/08 01:44:54;;;;;;;1.5;1.4;;;;;;;4.28;80.18164;95309.79;;;;
2019/12/08 01:45:55;;;;;;;1.5;1.4;;;;;;;4.28;80.18164;95309.79;;;;
2019/12/08 01:46:56;;;;;;;1.5;1.4;;;;;;;4.28;80.18164;95309.79;;;;
2019/12/08 01:47:57;;;;;;;1.5;1.4;;;;;;;4.28;80.18164;95309.79;;;;
2019/12/08 01:48:59;;;;;;;1.5;1.4;;;;;;;4.28;80.18164;95309.79;;;;
2019/12/08 01:50:00;;;;;;;1.5;1.4;;;;;;;4.28;80.18164;95309.79;;;;
2019/12/08 01:51:01;;;;;;;1.5;1.4;;;;;;;4.28;80.18164;95309.79;;;;
2019/12/08 01:52:02;;;;;;;1.4;1.3;;;;;;;3.89;80.40332;95305.94;;;;
2019/12/08 01:53:03;;;;;;;1.4;1.3;;;;;;;3.89;80.40332;95305.94;;;;
2019/12/08 01:54:04;;;;;;;1.4;1.3;;;;;;;3.89;80.40332;95305.94;;;;
2019/12/08 01:55:05;;;;;;;1.4;1.3;;;;;;;3.89;80.40332;95305.94;;;;
2019/12/08 01:56:06;;;;;;;1.4;1.3;;;;;;;3.89;80.40332;95305.94;;;;
2019/12/08 01:57:07;;;;;;;1.4;1.3;;;;;;;3.89;80.40332;95305.94;;;;
2019/12/08 01:58:09;;;;;;;1.4;1.3;;;;;;;3.89;80.40332;95305.94;;;;
2019/12/08 01:59:10;;;;;;;1.4;1.3;;;;;;;3.89;80.40332;95305.94;;;;
2019/12/08 02:00:11;;;;;;;1.4;1.3;;;;;;;3.89;80.40332;95305.94;;;;
2019/12/08 02:01:24;;;;;;;1.4;1.3;;;;;;;3.89;80.40332;95305.94;;;;
2019/12/08 02:02:33;;;;;;;1.65;1.55;;;;;;;3.52;80.62793;95298.68;;;;
2019/12/08 02:03:34;;;;;;;1.65;1.55;;;;;;;3.52;80.62793;95298.68;;;;
2019/12/08 02:04:35;;;;;;;1.65;1.55;;;;;;;3.52;80.62793;95298.68;;;;
2019/12/08 02:05:37;;;;;;;1.65;1.55;;;;;;;3.52;80.62793;95298.68;;;;
2019/12/08 02:06:38;;;;;;;1.65;1.55;;;;;;;3.52;80.62793;95298.68;;;;
2019/12/08 02:07:39;;;;;;;1.65;1.55;;;;;;;3.52;80.62793;95298.68;;;;
2019/12/08 02:08:40;;;;;;;1.65;1.55;;;;;;;3.52;80.62793;95298.68;;;;
2019/12/08 02:09:42;;;;;;;1.65;1.55;;;;;;;3.52;80.62793;95298.68;;;;
2019/12/08 02:10:43;;;;;;;1.65;1.55;;;;;;;3.52;80.62793;95298.68;;;;
2019/12/08 02:11:44;;;;;;;1.65;1.55;;;;;;;3.52;80.62793;95298.68;;;;
2019/12/08 02:12:45;;;;;;;2.2;1.65;;;;;;;3.08;80.87207;95288.7;;;;
2019/12/08 02:13:46;;;;;;;2.2;1.65;;;;;;;3.08;80.87207;95288.7;;;;
2019/12/08 02:14:47;;;;;;;2.2;1.65;;;;;;;3.08;80.87207;95288.7;;;;
2019/12/08 02:15:49;;;;;;;2.2;1.65;;;;;;;3.08;80.87207;95288.7;;;;
2019/12/08 02:16:50;;;;;;;2.2;1.65;;;;;;;3.08;80.87207;95288.7;;;;
2019/12/08 02:17:51;;;;;;;2.2;1.65;;;;;;;3.08;80.87207;95288.7;;;;
2019/12/08 02:18:52;;;;;;;2.2;1.65;;;;;;;3.08;80.87207;95288.7;;;;
2019/12/08 02:19:53;;;;;;;2.2;1.65;;;;;;;3.08;80.87207;95288.7;;;;
2019/12/08 02:20:55;;;;;;;2.2;1.65;;;;;;;3.08;80.87207;95288.7;;;;
2019/12/08 02:21:56;;;;;;;2.2;1.65;;;;;;;3.08;80.87207;95288.7;;;;
2019/12/08 02:22:57;;;;;;;2.7;1.5;;;;;;;2.77;81.17969;95271.36;;;;
2019/12/08 02:23:58;;;;;;;2.7;1.5;;;;;;;2.77;81.17969;95271.36;;;;
2019/12/08 02:25:00;;;;;;;2.7;1.5;;;;;;;2.77;81.17969;95271.36;;;;
2019/12/08 02:26:01;;;;;;;2.7;1.5;;;;;;;2.77;81.17969;95271.36;;;;
2019/12/08 02:27:02;;;;;;;2.7;1.5;;;;;;;2.77;81.17969;95271.36;;;;
2019/12/08 02:28:03;;;;;;;2.7;1.5;;;;;;;2.77;81.17969;95271.36;;;;
2019/12/08 02:29:04;;;;;;;2.7;1.5;;;;;;;2.77;81.17969;95271.36;;;;
2019/12/08 02:30:06;;;;;;;2.7;1.5;;;;;;;2.77;81.17969;95271.36;;;;
2019/12/08 02:31:07;;;;;;;2.7;1.5;;;;;;;2.77;81.17969;95271.36;;;;
2019/12/08 02:32:09;;;;;;;2.7;1.5;;;;;;;2.77;81.17969;95271.36;;;;
2019/12/08 02:33:10;;;;;;;2.7;1.5;;;;;;;2.77;81.17969;95271.36;;;;
2019/12/08 02:34:11;;;;;;;2.850001;1.6;;;;;;;2.43;81.33496;95274.25;;;;
2019/12/08 02:35:13;;;;;;;2.850001;1.6;;;;;;;2.43;81.33496;95274.25;;;;
2019/12/08 02:36:14;;;;;;;2.850001;1.6;;;;;;;2.43;81.33496;95274.25;;;;
2019/12/08 02:37:15;;;;;;;2.850001;1.6;;;;;;;2.43;81.33496;95274.25;;;;
2019/12/08 02:38:16;;;;;;;2.850001;1.6;;;;;;;2.43;81.33496;95274.25;;;;
2019/12/08 02:39:18;;;;;;;2.850001;1.6;;;;;;;2.43;81.33496;95274.25;;;;
2019/12/08 02:40:19;;;;;;;2.850001;1.6;;;;;;;2.43;81.33496;95274.25;;;;
2019/12/08 02:41:20;;;;;;;2.850001;1.6;;;;;;;2.43;81.33496;95274.25;;;;
2019/12/08 02:42:21;;;;;;;2.850001;1.6;;;;;;;2.43;81.33496;95274.25;;;;
2019/12/08 02:43:22;;;;;;;2.850001;1.6;;;;;;;2.43;81.33496;95274.25;;;;
2019/12/08 02:44:24;;;;;;;1.7;1.4;;;;;;;2.17;81.53613;95257.92;;;;
2019/12/08 02:45:25;;;;;;;1.7;1.4;;;;;;;2.17;81.53613;95257.92;;;;
2019/12/08 02:46:26;;;;;;;1.7;1.4;;;;;;;2.17;81.53613;95257.92;;;;
2019/12/08 02:47:31;;;;;;;1.7;1.4;;;;;;;2.17;81.53613;95257.92;;;;
2019/12/08 02:53:40;;;;;;;1.7;1.4;;;;;;;2.17;81.53613;95257.92;;;;
2019/12/08 02:54:42;;;;;;;1.7;1.4;;;;;;;2.17;81.53613;95257.92;;;;
2019/12/08 02:55:43;;;;;;;2.8;1.6;;;;;;;1.85;81.70605;95253.39;;;;
2019/12/08 02:56:44;;;;;;;2.8;1.6;;;;;;;1.85;81.70605;95253.39;;;;
2019/12/08 02:57:45;;;;;;;2.8;1.6;;;;;;;1.85;81.70605;95253.39;;;;
2019/12/08 02:58:46;;;;;;;2.8;1.6;;;;;;;1.85;81.70605;95253.39;;;;
2019/12/08 02:59:47;;;;;;;2.8;1.6;;;;;;;1.85;81.70605;95253.39;;;;
2019/12/08 03:00:48;;;;;;;2.8;1.6;;;;;;;1.85;81.70605;95253.39;;;;
2019/12/08 03:01:50;;;;;;;2.8;1.6;;;;;;;1.85;81.70605;95253.39;;;;
2019/12/08 03:02:52;;;;;;;2.8;1.6;;;;;;;1.85;81.70605;95253.39;;;;
2019/12/08 03:03:54;;;;;;;2.8;1.6;;;;;;;1.85;81.70605;95253.39;;;;
2019/12/08 03:04:55;;;;;;;2.8;1.6;;;;;;;1.85;81.70605;95253.39;;;;
2019/12/08 03:05:56;;;;;;;2.6;1.6;;;;;;;1.63;82.09473;95210.31;;;;
2019/12/08 03:06:57;;;;;;;2.6;1.6;;;;;;;1.63;82.09473;95210.31;;;;
2019/12/08 03:07:58;;;;;;;2.6;1.6;;;;;;;1.63;82.09473;95210.31;;;;
2019/12/08 03:09:00;;;;;;;2.6;1.6;;;;;;;1.63;82.09473;95210.31;;;;
2019/12/08 03:10:01;;;;;;;2.6;1.6;;;;;;;1.63;82.09473;95210.31;;;;
2019/12/08 03:11:02;;;;;;;2.6;1.6;;;;;;;1.63;82.09473;95210.31;;;;
2019/12/08 03:12:03;;;;;;;2.6;1.6;;;;;;;1.63;82.09473;95210.31;;;;
2019/12/08 03:13:04;;;;;;;2.6;1.6;;;;;;;1.63;82.09473;95210.31;;;;
2019/12/08 03:14:06;;;;;;;2.6;1.6;;;;;;;1.63;82.09473;95210.31;;;;
2019/12/08 03:15:07;;;;;;;2.6;1.6;;;;;;;1.63;82.09473;95210.31;;;;
2019/12/08 03:16:08;;;;;;;2.4;1.7;;;;;;;1.51;82.49121;95205.52;;;;
2019/12/08 03:17:09;;;;;;;2.4;1.7;;;;;;;1.51;82.49121;95205.52;;;;
2019/12/08 03:18:10;;;;;;;2.4;1.7;;;;;;;1.51;82.49121;95205.52;;;;
2019/12/08 03:19:12;;;;;;;2.4;1.7;;;;;;;1.51;82.49121;95205.52;;;;
2019/12/08 03:20:13;;;;;;;2.4;1.7;;;;;;;1.51;82.49121;95205.52;;;;
2019/12/08 03:21:14;;;;;;;2.4;1.7;;;;;;;1.51;82.49121;95205.52;;;;
2019/12/08 03:22:15;;;;;;;2.4;1.7;;;;;;;1.51;82.49121;95205.52;;;;
2019/12/08 03:23:16;;;;;;;2.4;1.7;;;;;;;1.51;82.49121;95205.52;;;;
2019/12/08 03:24:17;;;;;;;2.4;1.7;;;;;;;1.51;82.49121;95205.52;;;;
2019/12/08 03:25:19;;;;;;;2.4;1.7;;;;;;;1.51;82.49121;95205.52;;;;
2019/12/08 03:26:20;;;;;;;2.4;1.7;;;;;;;1.51;82.49121;95205.52;;;;
2019/12/08 03:27:21;;;;;;;2.25;1.95;;;;;;;1.52;82.66895;95185.49;;;;
2019/12/08 03:28:22;;;;;;;2.25;1.95;;;;;;;1.52;82.66895;95185.49;;;;
2019/12/08 03:29:23;;;;;;;2.25;1.95;;;;;;;1.52;82.66895;95185.49;;;;
2019/12/08 03:30:25;;;;;;;2.25;1.95;;;;;;;1.52;82.66895;95185.49;;;;
2019/12/08 03:31:26;;;;;;;2.25;1.95;;;;;;;1.52;82.66895;95185.49;;;;
2019/12/08 03:32:27;;;;;;;2.25;1.95;;;;;;;1.52;82.66895;95185.49;;;;
2019/12/08 03:33:28;;;;;;;2.25;1.95;;;;;;;1.52;82.66895;95185.49;;;;
2019/12/08 03:34:29;;;;;;;2.25;1.95;;;;;;;1.52;82.66895;95185.49;;;;
2019/12/08 03:35:30;;;;;;;2.25;1.95;;;;;;;1.52;82.66895;95185.49;;;;
2019/12/08 03:36:31;;;;;;;2.25;1.95;;;;;;;1.52;82.66895;95185.49;;;;
2019/12/08 03:37:32;;;;;;;2.2;1.8;;;;;;;1.41;82.70996;95171.8;;;;
2019/12/08 03:38:33;;;;;;;2.2;1.8;;;;;;;1.41;82.70996;95171.8;;;;
2019/12/08 03:39:34;;;;;;;2.2;1.8;;;;;;;1.41;82.70996;95171.8;;;;
2019/12/08 03:40:36;;;;;;;2.2;1.8;;;;;;;1.41;82.70996;95171.8;;;;
2019/12/08 03:41:37;;;;;;;2.2;1.8;;;;;;;1.41;82.70996;95171.8;;;;
2019/12/08 03:42:39;;;;;;;2.2;1.8;;;;;;;1.41;82.70996;95171.8;;;;
2019/12/08 03:43:44;;;;;;;2.2;1.8;;;;;;;1.41;82.70996;95171.8;;;;
2019/12/08 03:44:46;;;;;;;2.2;1.8;;;;;;;1.41;82.70996;95171.8;;;;
2019/12/08 03:45:47;;;;;;;2.2;1.8;;;;;;;1.41;82.70996;95171.8;;;;
2019/12/08 03:46:56;;;;;;;2.2;1.8;;;;;;;1.41;82.70996;95171.8;;;;
2019/12/08 03:48:15;;;;;;;2.25;2.05;;;;;;;1.3;82.86719;95158.45;;;;
2019/12/08 03:49:16;;;;;;;2.25;2.05;;;;;;;1.3;82.86719;95158.45;;;;
2019/12/08 03:50:21;;;;;;;2.25;2.05;;;;;;;1.3;82.86719;95158.45;;;;
2019/12/08 03:51:24;;;;;;;2.25;2.05;;;;;;;1.3;82.86719;95158.45;;;;
2019/12/08 03:52:32;;;;;;;2.25;2.05;;;;;;;1.3;82.86719;95158.45;;;;
2019/12/08 03:53:38;;;;;;;2.25;2.05;;;;;;;1.3;82.86719;95158.45;;;;
2019/12/08 03:54:40;;;;;;;2.25;2.05;;;;;;;1.3;82.86719;95158.45;;;;
2019/12/08 03:56:21;;;;;;;2.25;2.05;;;;;;;1.3;82.86719;95158.45;;;;
2019/12/08 03:57:25;;;;;;;2.25;2.05;;;;;;;1.3;82.86719;95158.45;;;;
2019/12/08 03:58:29;;;;;;;2.4;2.1;;;;;;;1.11;82.95605;95162.98;;;;
2019/12/08 03:59:34;;;;;;;2.4;2.1;;;;;;;1.11;82.95605;95162.98;;;;
2019/12/08 04:00:56;;;;;;;2.4;2.1;;;;;;;1.11;82.95605;95162.98;;;;
2019/12/08 04:07:11;;;;;;;2.4;2.1;;;;;;;1.11;82.95605;95162.98;;;;
2019/12/08 04:08:14;;;;;;;2.4;2.1;;;;;;;1.11;82.95605;95162.98;;;;
2019/12/08 04:09:17;;;;;;;3.1;2;;;;;;;0.97;83.2002;95164.18;;;;
2019/12/08 04:10:18;;;;;;;3.1;2;;;;;;;0.97;83.2002;95164.18;;;;
2019/12/08 04:11:19;;;;;;;3.1;2;;;;;;;0.97;83.2002;95164.18;;;;
2019/12/08 04:12:21;;;;;;;3.1;2;;;;;;;0.97;83.2002;95164.18;;;;
2019/12/08 04:13:22;;;;;;;3.1;2;;;;;;;0.97;83.2002;95164.18;;;;
2019/12/08 04:14:23;;;;;;;3.1;2;;;;;;;0.97;83.2002;95164.18;;;;
2019/12/08 04:15:24;;;;;;;3.1;2;;;;;;;0.97;83.2002;95164.18;;;;
2019/12/08 04:16:25;;;;;;;3.1;2;;;;;;;0.97;83.2002;95164.18;;;;
2019/12/08 04:17:26;;;;;;;3.1;2;;;;;;;0.97;83.2002;95164.18;;;;
2019/12/08 04:18:27;;;;;;;3.1;2;;;;;;;0.97;83.2002;95164.18;;;;
2019/12/08 04:19:28;;;;;;;3.1;2;;;;;;;0.97;83.2002;95164.18;;;;
2019/12/08 04:20:30;;;;;;;2.8;2.2;;;;;;;0.81;83.3457;95144.81;;;;
2019/12/08 04:21:31;;;;;;;2.8;2.2;;;;;;;0.81;83.3457;95144.81;;;;
2019/12/08 04:22:32;;;;;;;2.8;2.2;;;;;;;0.81;83.3457;95144.81;;;;
2019/12/08 04:23:33;;;;;;;2.8;2.2;;;;;;;0.81;83.3457;95144.81;;;;
2019/12/08 04:24:35;;;;;;;2.8;2.2;;;;;;;0.81;83.3457;95144.81;;;;
2019/12/08 04:25:37;;;;;;;2.8;2.2;;;;;;;0.81;83.3457;95144.81;;;;
2019/12/08 04:26:38;;;;;;;2.8;2.2;;;;;;;0.81;83.3457;95144.81;;;;
2019/12/08 04:27:40;;;;;;;2.8;2.2;;;;;;;0.81;83.3457;95144.81;;;;
2019/12/08 04:28:44;;;;;;;2.8;2.2;;;;;;;0.81;83.3457;95144.81;;;;
2019/12/08 04:29:47;;;;;;;2.8;2.2;;;;;;;0.81;83.3457;95144.81;;;;
2019/12/08 04:30:53;;;;;;;2.9;2.35;;;;;;;0.74;83.52148;95142.14;;;;
2019/12/08 04:31:54;;;;;;;2.9;2.35;;;;;;;0.74;83.52148;95142.14;;;;
2019/12/08 04:32:57;;;;;;;2.9;2.35;;;;;;;0.74;83.52148;95142.14;;;;
2019/12/08 04:33:58;;;;;;;2.9;2.35;;;;;;;0.74;83.52148;95142.14;;;;
2019/12/08 04:34:59;;;;;;;2.9;2.35;;;;;;;0.74;83.52148;95142.14;;;;
2019/12/08 04:36:00;;;;;;;2.9;2.35;;;;;;;0.74;83.52148;95142.14;;;;
2019/12/08 04:37:01;;;;;;;2.9;2.35;;;;;;;0.74;83.52148;95142.14;;;;
2019/12/08 04:38:02;;;;;;;2.9;2.35;;;;;;;0.74;83.52148;95142.14;;;;
2019/12/08 04:39:04;;;;;;;2.9;2.35;;;;;;;0.74;83.52148;95142.14;;;;
2019/12/08 04:40:05;;;;;;;2.9;2.35;;;;;;;0.74;83.52148;95142.14;;;;
2019/12/08 04:41:06;;;;;;;3.55;3.1;;;;;;;0.65;83.82422;95119.83;;;;
2019/12/08 04:42:07;;;;;;;3.55;3.1;;;;;;;0.65;83.82422;95119.83;;;;
2019/12/08 04:43:08;;;;;;;3.55;3.1;;;;;;;0.65;83.82422;95119.83;;;;
2019/12/08 04:44:09;;;;;;;3.55;3.1;;;;;;;0.65;83.82422;95119.83;;;;
2019/12/08 04:45:10;;;;;;;3.55;3.1;;;;;;;0.65;83.82422;95119.83;;;;
2019/12/08 04:46:11;;;;;;;3.55;3.1;;;;;;;0.65;83.82422;95119.83;;;;
2019/12/08 04:47:12;;;;;;;3.55;3.1;;;;;;;0.65;83.82422;95119.83;;;;
2019/12/08 04:48:13;;;;;;;3.55;3.1;;;;;;;0.65;83.82422;95119.83;;;;
2019/12/08 04:49:14;;;;;;;3.55;3.1;;;;;;;0.65;83.82422;95119.83;;;;
2019/12/08 04:50:16;;;;;;;3.55;3.1;;;;;;;0.65;83.82422;95119.83;;;;
2019/12/08 04:51:17;;;;;;;3.55;3.1;;;;;;;0.65;83.82422;95119.83;;;;
2019/12/08 04:52:18;;;;;;;5.3;4.2;;;;;;;0.8;84.5;95103.4;;;;
2019/12/08 04:53:19;;;;;;;5.3;4.2;;;;;;;0.8;84.5;95103.4;;;;
2019/12/08 04:54:20;;;;;;;5.3;4.2;;;;;;;0.8;84.5;95103.4;;;;
2019/12/08 04:55:21;;;;;;;5.3;4.2;;;;;;;0.8;84.5;95103.4;;;;
2019/12/08 04:56:22;;;;;;;5.3;4.2;;;;;;;0.8;84.5;95103.4;;;;
2019/12/08 04:57:23;;;;;;;5.3;4.2;;;;;;;0.8;84.5;95103.4;;;;
2019/12/08 04:58:24;;;;;;;5.3;4.2;;;;;;;0.8;84.5;95103.4;;;;
2019/12/08 04:59:25;;;;;;;5.3;4.2;;;;;;;0.8;84.5;95103.4;;;;
2019/12/08 05:00:27;;;;;;;5.3;4.2;;;;;;;0.8;84.5;95103.4;;;;
2019/12/08 05:01:28;;;;;;;5.3;4.2;;;;;;;0.8;84.5;95103.4;;;;
2019/12/08 05:02:29;;;;;;;4.8;4;;;;;;;0.94;84.48828;95096.78;;;;
2019/12/08 05:03:30;;;;;;;4.8;4;;;;;;;0.94;84.48828;95096.78;;;;
2019/12/08 05:04:31;;;;;;;4.8;4;;;;;;;0.94;84.48828;95096.78;;;;
2019/12/08 05:05:32;;;;;;;4.8;4;;;;;;;0.94;84.48828;95096.78;;;;
2019/12/08 05:06:33;;;;;;;4.8;4;;;;;;;0.94;84.48828;95096.78;;;;
2019/12/08 05:07:34;;;;;;;4.8;4;;;;;;;0.94;84.48828;95096.78;;;;
2019/12/08 05:08:36;;;;;;;4.8;4;;;;;;;0.94;84.48828;95096.78;;;;
2019/12/08 05:09:37;;;;;;;4.8;4;;;;;;;0.94;84.48828;95096.78;;;;
2019/12/08 05:10:38;;;;;;;4.8;4;;;;;;;0.94;84.48828;95096.78;;;;
2019/12/08 05:11:39;;;;;;;4.8;4;;;;;;;0.94;84.48828;95096.78;;;;
2019/12/08 05:12:40;;;;;;;4.4;3.45;;;;;;;1.07;84.60645;95102.8;;;;
2019/12/08 05:13:41;;;;;;;4.4;3.45;;;;;;;1.07;84.60645;95102.8;;;;
2019/12/08 05:14:42;;;;;;;4.4;3.45;;;;;;;1.07;84.60645;95102.8;;;;
2019/12/08 05:15:43;;;;;;;4.4;3.45;;;;;;;1.07;84.60645;95102.8;;;;
2019/12/08 05:16:44;;;;;;;4.4;3.45;;;;;;;1.07;84.60645;95102.8;;;;
2019/12/08 05:17:45;;;;;;;4.4;3.45;;;;;;;1.07;84.60645;95102.8;;;;
2019/12/08 05:18:46;;;;;;;4.4;3.45;;;;;;;1.07;84.60645;95102.8;;;;
2019/12/08 05:19:47;;;;;;;4.4;3.45;;;;;;;1.07;84.60645;95102.8;;;;
2019/12/08 05:20:48;;;;;;;4.4;3.45;;;;;;;1.07;84.60645;95102.8;;;;
2019/12/08 05:21:50;;;;;;;4.4;3.45;;;;;;;1.07;84.60645;95102.8;;;;
2019/12/08 05:22:51;;;;;;;4.4;3.45;;;;;;;1.07;84.60645;95102.8;;;;
2019/12/08 05:23:52;;;;;;;3.6;2.85;;;;;;;0.99;84.58105;95114.33;;;;
2019/12/08 05:24:53;;;;;;;3.6;2.85;;;;;;;0.99;84.58105;95114.33;;;;
2019/12/08 05:26:06;;;;;;;3.6;2.85;;;;;;;0.99;84.58105;95114.33;;;;
2019/12/08 05:27:16;;;;;;;3.6;2.85;;;;;;;0.99;84.58105;95114.33;;;;
2019/12/08 05:28:52;;;;;;;3.6;2.85;;;;;;;0.99;84.58105;95114.33;;;;
2019/12/08 05:29:57;;;;;;;3.6;2.85;;;;;;;0.99;84.58105;95114.33;;;;
2019/12/08 05:30:59;;;;;;;3.6;2.85;;;;;;;0.99;84.58105;95114.33;;;;
2019/12/08 05:32:00;;;;;;;3.6;2.85;;;;;;;0.99;84.58105;95114.33;;;;
2019/12/08 05:33:01;;;;;;;3.6;2.85;;;;;;;0.99;84.58105;95114.33;;;;
2019/12/08 05:34:02;;;;;;;3.5;3.1;;;;;;;0.96;84.97168;95108.06;;;;
2019/12/08 05:35:03;;;;;;;3.5;3.1;;;;;;;0.96;84.97168;95108.06;;;;
2019/12/08 05:36:04;;;;;;;3.5;3.1;;;;;;;0.96;84.97168;95108.06;;;;
2019/12/08 05:37:06;;;;;;;3.5;3.1;;;;;;;0.96;84.97168;95108.06;;;;
2019/12/08 05:38:07;;;;;;;3.5;3.1;;;;;;;0.96;84.97168;95108.06;;;;
2019/12/08 05:39:08;;;;;;;3.5;3.1;;;;;;;0.96;84.97168;95108.06;;;;
2019/12/08 05:40:09;;;;;;;3.5;3.1;;;;;;;0.96;84.97168;95108.06;;;;
2019/12/08 05:41:10;;;;;;;3.5;3.1;;;;;;;0.96;84.97168;95108.06;;;;
2019/12/08 05:42:11;;;;;;;3.5;3.1;;;;;;;0.96;84.97168;95108.06;;;;
2019/12/08 05:43:12;;;;;;;3.5;3.1;;;;;;;0.96;84.97168;95108.06;;;;
2019/12/08 05:44:13;;;;;;;3.5;3.1;;;;;;;0.96;84.97168;95108.06;;;;
2019/12/08 05:45:14;;;;;;;3.5;3.1;;;;;;;0.96;84.97168;95108.06;;;;
2019/12/08 05:46:15;;;;;;;3.5;3.1;;;;;;;0.96;84.97168;95108.06;;;;
2019/12/08 05:47:16;;;;;;;3.5;3.1;;;;;;;0.96;84.97168;95108.06;;;;
2019/12/08 05:48:17;;;;;;;3.5;3.1;;;;;;;0.96;84.97168;95108.06;;;;
2019/12/08 05:49:19;;;;;;;3.5;3.1;;;;;;;0.96;84.97168;95108.06;;;;
2019/12/08 05:50:20;;;;;;;3.5;3.1;;;;;;;0.96;84.97168;95108.06;;;;
2019/12/08 05:51:21;;;;;;;3.5;3.1;;;;;;;0.96;84.97168;95108.06;;;;
2019/12/08 05:52:22;;;;;;;3.5;3.1;;;;;;;0.96;84.97168;95108.06;;;;
2019/12/08 05:53:23;;;;;;;3.5;3.1;;;;;;;0.96;84.97168;95108.06;;;;
2019/12/08 05:54:24;;;;;;;3.5;3.1;;;;;;;0.96;84.97168;95108.06;;;;
2019/12/08 05:55:25;;;;;;;3.7;3;;;;;;;1.11;85.54395;95092.13;;;;
2019/12/08 05:56:26;;;;;;;3.7;3;;;;;;;1.11;85.54395;95092.13;;;;
2019/12/08 05:57:27;;;;;;;3.7;3;;;;;;;1.11;85.54395;95092.13;;;;
2019/12/08 05:58:28;;;;;;;3.7;3;;;;;;;1.11;85.54395;95092.13;;;;
2019/12/08 05:59:30;;;;;;;3.7;3;;;;;;;1.11;85.54395;95092.13;;;;
2019/12/08 06:00:31;;;;;;;3.7;3;;;;;;;1.11;85.54395;95092.13;;;;
2019/12/08 06:01:32;;;;;;;3.7;3;;;;;;;1.11;85.54395;95092.13;;;;
2019/12/08 06:02:33;;;;;;;3.7;3;;;;;;;1.11;85.54395;95092.13;;;;
2019/12/08 06:03:34;;;;;;;3.7;3;;;;;;;1.11;85.54395;95092.13;;;;
2019/12/08 06:04:35;;;;;;;3.7;3;;;;;;;1.11;85.54395;95092.13;;;;
2019/12/08 06:05:36;;;;;;;3.7;3;;;;;;;1.11;85.54395;95092.13;;;;
2019/12/08 06:06:37;;;;;;;3.149999;2.4;;;;;;;1;85.59473;95070.81;;;;
2019/12/08 06:07:38;;;;;;;3.149999;2.4;;;;;;;1;85.59473;95070.81;;;;
2019/12/08 06:08:40;;;;;;;3.149999;2.4;;;;;;;1;85.59473;95070.81;;;;
2019/12/08 06:09:41;;;;;;;3.149999;2.4;;;;;;;1;85.59473;95070.81;;;;
2019/12/08 06:10:42;;;;;;;3.149999;2.4;;;;;;;1;85.59473;95070.81;;;;
2019/12/08 06:11:43;;;;;;;3.149999;2.4;;;;;;;1;85.59473;95070.81;;;;
2019/12/08 06:12:44;;;;;;;3.149999;2.4;;;;;;;1;85.59473;95070.81;;;;
2019/12/08 06:13:45;;;;;;;3.149999;2.4;;;;;;;1;85.59473;95070.81;;;;
2019/12/08 06:14:46;;;;;;;3.149999;2.4;;;;;;;1;85.59473;95070.81;;;;
2019/12/08 06:15:47;;;;;;;3.149999;2.4;;;;;;;1;85.59473;95070.81;;;;
2019/12/08 06:16:48;;;;;;;3.149999;2.4;;;;;;;1;85.59473;95070.81;;;;
2019/12/08 06:17:49;;;;;;;3.149999;2.4;;;;;;;1;85.59473;95070.81;;;;
2019/12/08 06:18:50;;;;;;;3.149999;2.4;;;;;;;1;85.59473;95070.81;;;;
2019/12/08 06:19:51;;;;;;;3.149999;2.4;;;;;;;1;85.59473;95070.81;;;;